Time;durP1;ratioP1;P1;durP2;ratioP2;P2;SDS_P1;SDS_P2;PMS_P1;PMS_P2;Temp;Humidity;BMP_temperature;BMP_pressure;BME280_temperature;BME280_humidity;BME280_pressure;Samples;Min_cycle;Max_cycle;Signal;HPM_P1;HPM_P2
2023/06/26 00:00:47;;;;;;;9.98;8.98;;;23.60;55.80;;;;;;5071497;28;20245;-67
2023/06/26 00:03:14;;;;;;;9.38;8.48;;;23.60;55.90;;;;;;5073473;28;20492;-67
2023/06/26 00:05:41;;;;;;;9.48;8.68;;;23.60;56.00;;;;;;5073798;28;20036;-67
2023/06/26 00:08:07;;;;;;;8.85;7.97;;;23.50;56.00;;;;;;5056826;28;20037;-67
2023/06/26 00:10:33;;;;;;;9.00;8.10;;;23.50;56.00;;;;;;5073498;28;20094;-67
2023/06/26 00:12:59;;;;;;;9.80;8.88;;;23.50;56.10;;;;;;5073414;28;20119;-67
2023/06/26 00:15:25;;;;;;;9.82;8.38;;;23.50;56.20;;;;;;5073526;28;20371;-67
2023/06/26 00:17:50;;;;;;;9.60;8.63;;;23.50;56.30;;;;;;5073816;28;20048;-67
2023/06/26 00:20:18;;;;;;;10.45;9.35;;;23.40;56.30;;;;;;5073276;28;20426;-67
2023/06/26 00:22:45;;;;;;;10.02;8.30;;;23.40;56.40;;;;;;5073352;28;20048;-67
2023/06/26 00:25:10;;;;;;;13.95;9.23;;;23.40;56.50;;;;;;5073217;28;20048;-67
2023/06/26 00:27:36;;;;;;;10.85;9.57;;;23.40;56.60;;;;;;5073069;28;20495;-67
2023/06/26 00:30:02;;;;;;;12.20;9.90;;;23.30;56.60;;;;;;5074360;28;20082;-67
2023/06/26 00:32:28;;;;;;;9.85;8.85;;;23.30;56.70;;;;;;5073114;28;20044;-67
2023/06/26 00:34:54;;;;;;;10.30;9.30;;;23.20;56.80;;;;;;5056251;28;20051;-67
2023/06/26 00:37:21;;;;;;;10.43;9.43;;;23.20;57.30;;;;;;5072529;28;20037;-67
2023/06/26 00:39:47;;;;;;;10.63;9.15;;;23.20;56.90;;;;;;5073050;28;20121;-67
2023/06/26 00:42:12;;;;;;;12.55;9.82;;;23.20;57.10;;;;;;5072827;28;20133;-67
2023/06/26 00:44:38;;;;;;;11.40;10.02;;;23.10;57.20;;;;;;5072903;28;20476;-67
2023/06/26 00:47:04;;;;;;;10.77;9.77;;;23.10;57.30;;;;;;5072275;28;20040;-68
2023/06/26 00:49:30;;;;;;;11.23;9.25;;;23.10;57.40;;;;;;5055763;28;20452;-67
2023/06/26 00:51:56;;;;;;;11.80;9.77;;;23.00;57.50;;;;;;5056008;28;20076;-67
2023/06/26 00:54:22;;;;;;;10.65;9.65;;;23.00;57.60;;;;;;5072864;28;20365;-68
2023/06/26 00:56:48;;;;;;;11.07;10.00;;;23.00;57.70;;;;;;5072991;28;20062;-67
2023/06/26 00:59:14;;;;;;;11.02;9.57;;;22.90;57.80;;;;;;5072548;28;20045;-67
2023/06/26 01:01:40;;;;;;;11.77;10.57;;;22.90;57.90;;;;;;5054558;28;20040;-67
2023/06/26 01:04:06;;;;;;;13.23;10.60;;;22.90;57.90;;;;;;5070809;28;20505;-67
2023/06/26 01:06:35;;;;;;;10.65;9.65;;;22.90;58.10;;;;;;5055825;28;20036;-67
2023/06/26 01:09:02;;;;;;;11.52;10.43;;;22.80;58.10;;;;;;5072106;28;20489;-67
2023/06/26 01:11:28;;;;;;;11.38;10.27;;;22.80;58.20;;;;;;5072013;28;20033;-67
2023/06/26 01:13:56;;;;;;;12.05;10.85;;;22.80;58.30;;;;;;5072005;28;20048;-67
2023/06/26 01:16:23;;;;;;;12.38;11.20;;;22.70;58.40;;;;;;5073800;28;20041;-67
2023/06/26 01:18:49;;;;;;;11.85;10.65;;;22.70;58.40;;;;;;5072463;28;20043;-67
2023/06/26 01:21:16;;;;;;;12.73;11.25;;;22.70;58.50;;;;;;5073135;28;20036;-67
2023/06/26 01:24:09;;;;;;;12.15;10.90;;;22.70;58.60;;;;;;5071782;28;20174;-67
2023/06/26 01:26:36;;;;;;;11.00;9.90;;;22.70;58.50;;;;;;5072029;28;20040;-67
2023/06/26 01:29:06;;;;;;;12.70;11.50;;;22.60;58.70;;;;;;5071837;28;20036;-67
2023/06/26 01:31:33;;;;;;;12.48;11.27;;;22.70;58.80;;;;;;5072062;28;20044;-67
2023/06/26 01:34:00;;;;;;;12.38;10.23;;;22.60;58.90;;;;;;5073287;28;20040;-67
2023/06/26 01:36:26;;;;;;;11.68;10.57;;;22.60;58.90;;;;;;5071503;28;20032;-67
2023/06/26 01:38:52;;;;;;;13.98;11.65;;;22.50;59.00;;;;;;5071285;28;20150;-67
2023/06/26 01:41:19;;;;;;;12.50;11.30;;;22.50;59.10;;;;;;5071974;28;20123;-67
2023/06/26 01:44:09;;;;;;;12.30;11.00;;;22.50;59.10;;;;;;5071580;28;20090;-67
2023/06/26 01:47:05;;;;;;;12.45;11.25;;;22.50;58.90;;;;;;5055354;28;20048;-67
2023/06/26 01:49:46;;;;;;;8.48;7.68;;;22.50;59.20;;;;;;5070210;28;20044;-67
2023/06/26 01:52:28;;;;;;;11.85;10.75;;;22.50;58.70;;;;;;5071531;28;20511;-67
2023/06/26 01:55:00;;;;;;;11.98;10.77;;;22.50;59.00;;;;;;5054953;28;20119;-67
2023/06/26 01:57:28;;;;;;;12.82;11.35;;;22.50;59.20;;;;;;5070891;28;20036;-67
2023/06/26 01:59:55;;;;;;;10.82;9.77;;;22.50;59.20;;;;;;5055061;28;20048;-67
2023/06/26 02:02:23;;;;;;;9.93;8.93;;;22.50;59.10;;;;;;5069145;28;20389;-67
2023/06/26 02:04:49;;;;;;;9.95;8.70;;;22.50;58.90;;;;;;5054119;28;20097;-67
2023/06/26 02:07:15;;;;;;;8.55;7.75;;;22.50;58.60;;;;;;5071065;28;20111;-67
2023/06/26 02:09:41;;;;;;;9.25;8.35;;;22.60;58.30;;;;;;5071130;28;20058;-67
2023/06/26 02:12:07;;;;;;;8.88;7.97;;;22.60;58.30;;;;;;5055151;28;20032;-67
2023/06/26 02:14:33;;;;;;;9.98;9.07;;;22.60;58.20;;;;;;5070818;28;20047;-67
2023/06/26 02:17:00;;;;;;;9.55;8.65;;;22.70;58.40;;;;;;5071524;28;20381;-67
2023/06/26 02:19:27;;;;;;;9.93;8.93;;;22.70;58.40;;;;;;5070651;28;20502;-67
2023/06/26 02:21:53;;;;;;;8.20;7.40;;;22.70;58.20;;;;;;5070939;28;20059;-67
2023/06/26 02:24:19;;;;;;;8.55;7.03;;;22.80;57.80;;;;;;5072014;28;20427;-67
2023/06/26 02:26:45;;;;;;;8.43;7.63;;;22.80;57.50;;;;;;5070782;28;20123;-67
2023/06/26 02:29:12;;;;;;;10.50;9.50;;;22.80;57.50;;;;;;5071740;28;20112;-67
2023/06/26 02:31:37;;;;;;;8.15;7.32;;;22.80;57.80;;;;;;5068279;28;20048;-67
2023/06/26 02:34:03;;;;;;;8.38;7.57;;;22.90;57.80;;;;;;5070703;28;20535;-67
2023/06/26 02:36:29;;;;;;;9.63;8.73;;;22.90;57.40;;;;;;5071137;28;20032;-67
2023/06/26 02:38:55;;;;;;;8.35;7.55;;;22.90;57.70;;;;;;5053841;28;20097;-67
2023/06/26 02:41:21;;;;;;;8.15;7.35;;;22.90;57.60;;;;;;5070593;28;20048;-67
2023/06/26 02:43:46;;;;;;;8.80;8.00;;;22.90;57.50;;;;;;5069212;28;20032;-67
2023/06/26 02:46:12;;;;;;;8.98;8.18;;;23.00;57.60;;;;;;5070301;28;20048;-67
2023/06/26 02:48:38;;;;;;;8.73;7.82;;;23.00;57.60;;;;;;5070056;28;20124;-67
2023/06/26 02:51:03;;;;;;;8.65;7.82;;;23.00;57.60;;;;;;5070489;28;20120;-67
2023/06/26 02:53:30;;;;;;;10.88;8.07;;;23.00;57.60;;;;;;5071799;28;20102;-67
2023/06/26 02:55:56;;;;;;;9.40;8.35;;;23.00;57.50;;;;;;5086891;28;20040;-67
2023/06/26 02:58:22;;;;;;;9.52;7.30;;;23.10;57.70;;;;;;5053480;28;20098;-67
2023/06/26 03:00:48;;;;;;;7.82;7.03;;;23.10;57.60;;;;;;5071417;28;20127;-67
2023/06/26 03:03:14;;;;;;;7.90;7.10;;;23.10;57.60;;;;;;5071688;28;20081;-67
2023/06/26 03:05:39;;;;;;;8.88;7.97;;;23.20;57.50;;;;;;5071379;28;20028;-67
2023/06/26 03:08:05;;;;;;;7.53;6.80;;;23.20;57.50;;;;;;5071313;28;20121;-67
2023/06/26 03:10:31;;;;;;;8.23;6.88;;;23.20;57.40;;;;;;5071351;28;20044;-67
2023/06/26 03:12:57;;;;;;;9.88;7.53;;;23.20;57.40;;;;;;5054706;28;20055;-67
2023/06/26 03:15:22;;;;;;;6.82;6.18;;;23.20;57.60;;;;;;5055028;28;20079;-67
2023/06/26 03:17:48;;;;;;;7.57;6.85;;;23.30;57.50;;;;;;5071414;28;20403;-67
2023/06/26 03:20:15;;;;;;;10.35;7.15;;;23.20;57.40;;;;;;5071057;28;20193;-67
2023/06/26 03:22:41;;;;;;;6.43;5.82;;;23.30;57.50;;;;;;5072281;28;20049;-67
2023/06/26 03:25:07;;;;;;;7.15;6.30;;;23.30;57.60;;;;;;5071080;28;20055;-67
2023/06/26 03:27:33;;;;;;;7.72;6.93;;;23.30;57.30;;;;;;5071082;28;20048;-67
2023/06/26 03:29:59;;;;;;;8.32;6.78;;;23.30;57.40;;;;;;5072452;28;20043;-67
2023/06/26 03:32:24;;;;;;;5.88;5.35;;;23.30;57.40;;;;;;5071201;28;20128;-67
2023/06/26 03:34:50;;;;;;;7.40;6.53;;;23.30;57.20;;;;;;5071131;28;20040;-67
2023/06/26 03:37:16;;;;;;;7.18;6.45;;;23.30;57.30;;;;;;5070761;28;20368;-67
2023/06/26 03:39:41;;;;;;;8.48;6.45;;;23.30;57.50;;;;;;5088087;28;20078;-67
2023/06/26 03:42:07;;;;;;;10.15;7.40;;;23.30;57.50;;;;;;5071092;28;20481;-67
2023/06/26 03:44:33;;;;;;;7.40;6.50;;;23.40;57.80;;;;;;5071107;28;20131;-67
2023/06/26 03:46:58;;;;;;;6.32;5.68;;;23.40;57.70;;;;;;5071114;28;20035;-67
2023/06/26 03:49:24;;;;;;;9.65;7.25;;;23.30;57.50;;;;;;5054290;28;20044;-67
2023/06/26 03:51:50;;;;;;;8.57;7.25;;;23.40;57.70;;;;;;5072255;28;20124;-67
2023/06/26 03:54:16;;;;;;;8.88;7.55;;;23.40;57.80;;;;;;5070736;28;20056;-67
2023/06/26 04:02:01;;;;;;;11.02;7.53;;;23.40;58.60;;;;;;5430377;22;20053;-66
2023/06/26 04:04:27;;;;;;;8.75;7.07;;;23.40;58.70;;;;;;5033916;28;20052;-66
2023/06/26 04:06:53;;;;;;;9.35;7.28;;;23.40;58.70;;;;;;5034093;28;20041;-66
2023/06/26 04:09:19;;;;;;;9.55;7.25;;;23.40;58.80;;;;;;5051498;28;20041;-66
2023/06/26 04:11:45;;;;;;;8.60;6.88;;;23.40;59.30;;;;;;5034089;28;20080;-66
2023/06/26 04:14:11;;;;;;;8.00;6.88;;;23.40;59.50;;;;;;5017942;28;20119;-66
2023/06/26 04:16:37;;;;;;;10.45;7.15;;;23.40;59.50;;;;;;5034347;28;20489;-66
2023/06/26 04:19:04;;;;;;;11.32;6.95;;;23.40;59.90;;;;;;5034390;28;20047;-67
2023/06/26 04:21:30;;;;;;;8.20;5.78;;;23.40;60.40;;;;;;5051465;28;20518;-66
2023/06/26 04:23:56;;;;;;;10.68;6.78;;;23.40;60.30;;;;;;5051922;28;20048;-67
2023/06/26 04:26:22;;;;;;;11.40;6.75;;;23.40;60.20;;;;;;5033787;28;20033;-68
2023/06/26 04:28:48;;;;;;;9.75;6.88;;;23.40;60.70;;;;;;5034092;28;20037;-67
2023/06/26 04:31:13;;;;;;;14.00;7.10;;;23.50;61.00;;;;;;5033638;28;20052;-66
2023/06/26 04:33:39;;;;;;;10.38;6.43;;;23.40;61.00;;;;;;5034148;28;20037;-67
2023/06/26 04:36:05;;;;;;;9.10;6.32;;;23.40;61.30;;;;;;5051744;28;20475;-67
2023/06/26 04:38:34;;;;;;;11.45;6.20;;;23.40;61.20;;;;;;5051644;28;20033;-67
2023/06/26 04:41:01;;;;;;;13.43;6.28;;;23.40;61.10;;;;;;5033959;28;20029;-67
2023/06/26 04:43:26;;;;;;;10.10;6.45;;;23.40;61.20;;;;;;5033694;28;20052;-67
2023/06/26 04:45:52;;;;;;;10.77;6.32;;;23.40;61.10;;;;;;5033832;28;20060;-66
2023/06/26 04:48:18;;;;;;;10.05;6.68;;;23.40;61.20;;;;;;5035674;28;20122;-66
2023/06/26 04:50:45;;;;;;;12.95;6.95;;;23.40;61.30;;;;;;5047740;28;20033;-66
2023/06/26 04:53:11;;;;;;;11.88;7.25;;;23.40;61.30;;;;;;5037255;28;20037;-66
2023/06/26 04:55:37;;;;;;;13.50;7.15;;;23.40;61.40;;;;;;5037289;28;20128;-66
2023/06/26 04:58:02;;;;;;;12.05;6.70;;;23.40;61.40;;;;;;5054965;28;20059;-66
2023/06/26 05:00:28;;;;;;;10.88;6.95;;;23.30;61.00;;;;;;5037508;28;20041;-67
2023/06/26 05:03:00;;;;;;;11.02;6.53;;;23.30;60.90;;;;;;5056596;28;20045;-66
2023/06/26 05:05:28;;;;;;;8.43;5.72;;;23.30;61.00;;;;;;5041072;28;20513;-66
2023/06/26 05:07:54;;;;;;;10.60;6.38;;;23.30;60.90;;;;;;5057127;28;20070;-66
2023/06/26 05:10:20;;;;;;;9.95;6.63;;;23.30;61.10;;;;;;5057033;28;20040;-67
2023/06/26 05:12:46;;;;;;;9.23;5.57;;;23.40;61.20;;;;;;5056566;28;20048;-67
2023/06/26 05:15:11;;;;;;;9.45;5.55;;;23.30;61.00;;;;;;5056864;28;20028;-67
2023/06/26 05:17:37;;;;;;;12.43;6.53;;;23.30;61.20;;;;;;5039943;28;20052;-67
2023/06/26 05:20:05;;;;;;;10.55;6.13;;;23.30;61.40;;;;;;5056648;28;20188;-67
2023/06/26 05:22:32;;;;;;;11.23;5.63;;;23.30;61.80;;;;;;5056554;28;20048;-67
2023/06/26 05:25:00;;;;;;;8.25;5.03;;;23.30;61.90;;;;;;5056516;28;20158;-67
2023/06/26 05:27:26;;;;;;;9.68;5.30;;;23.30;62.10;;;;;;5056620;28;20041;-67
2023/06/26 05:29:52;;;;;;;7.60;4.90;;;23.30;62.10;;;;;;5056415;28;20037;-67
2023/06/26 05:32:18;;;;;;;8.38;3.83;;;23.30;61.80;;;;;;5055841;28;20044;-67
2023/06/26 05:34:50;;;;;;;7.22;3.83;;;23.30;61.00;;;;;;5056659;28;20044;-67
2023/06/26 05:37:21;;;;;;;8.20;3.25;;;23.40;60.60;;;;;;5039606;28;20044;-66
2023/06/26 05:39:48;;;;;;;6.93;2.83;;;23.40;59.70;;;;;;5056148;28;20040;-67
2023/06/26 05:42:14;;;;;;;8.98;3.42;;;23.30;59.40;;;;;;5056292;28;20637;-67
2023/06/26 05:44:40;;;;;;;5.60;2.78;;;23.40;59.10;;;;;;5056283;28;20047;-67
2023/06/26 05:47:06;;;;;;;7.03;2.80;;;23.50;58.90;;;;;;5055886;28;20123;-67
2023/06/26 05:49:33;;;;;;;5.47;2.47;;;23.60;58.40;;;;;;5056266;28;20044;-67
2023/06/26 05:51:59;;;;;;;7.43;3.00;;;23.70;58.00;;;;;;5055807;28;20494;-67
2023/06/26 05:54:25;;;;;;;5.45;2.38;;;23.80;57.70;;;;;;5073923;28;20036;-67
2023/06/26 05:56:59;;;;;;;7.00;2.70;;;24.00;57.00;;;;;;5056346;28;20042;-67
2023/06/26 05:59:26;;;;;;;;;;;24.10;56.40;;;;;;5056637;28;20113;-67
2023/06/26 06:01:52;;;;;;;6.28;2.75;;;24.20;56.50;;;;;;5038653;28;19924;-67
2023/06/26 06:04:18;;;;;;;4.95;2.05;;;24.30;56.30;;;;;;5055943;28;20044;-67
2023/06/26 06:06:43;;;;;;;5.30;2.20;;;24.50;55.90;;;;;;5039147;28;20079;-67
2023/06/26 06:09:09;;;;;;;6.43;2.17;;;24.80;55.20;;;;;;5034754;28;20795;-67
2023/06/26 06:11:35;;;;;;;7.32;2.53;;;25.00;54.60;;;;;;5056034;28;20479;-67
2023/06/26 06:14:01;;;;;;;5.70;2.40;;;25.30;54.00;;;;;;5050938;28;20040;-67
2023/06/26 06:16:28;;;;;;;4.53;1.85;;;25.50;53.00;;;;;;5055779;28;20094;-68
2023/06/26 06:18:55;;;;;;;4.28;1.92;;;25.70;52.60;;;;;;5039250;28;20033;-68
2023/06/26 06:21:21;;;;;;;4.82;2.00;;;25.90;52.10;;;;;;5055799;28;20040;-67
2023/06/26 06:23:46;;;;;;;4.07;1.80;;;26.00;51.50;;;;;;5054973;28;20383;-68
2023/06/26 06:26:12;;;;;;;5.35;2.00;;;26.10;51.00;;;;;;5055258;28;20437;-68
2023/06/26 06:28:41;;;;;;;5.75;2.75;;;26.20;50.80;;;;;;5055434;28;20037;-67
2023/06/26 06:31:07;;;;;;;6.38;2.25;;;26.20;50.50;;;;;;5055219;28;20033;-68
2023/06/26 06:33:33;;;;;;;8.18;2.22;;;26.30;49.90;;;;;;5055375;28;20093;-68
2023/06/26 06:35:58;;;;;;;5.38;1.88;;;26.40;49.50;;;;;;5073308;28;20047;-68
2023/06/26 06:38:24;;;;;;;3.35;2.13;;;26.40;49.50;;;;;;5055089;28;20387;-68
2023/06/26 06:40:51;;;;;;;5.80;1.98;;;26.40;49.40;;;;;;5055190;28;20529;-68
2023/06/26 06:43:16;;;;;;;4.13;1.85;;;26.50;49.40;;;;;;5054940;28;20036;-67
2023/06/26 06:45:42;;;;;;;5.03;2.28;;;26.70;49.40;;;;;;5073120;28;20143;-67
2023/06/26 06:48:08;;;;;;;5.65;1.77;;;26.80;49.30;;;;;;5054844;28;20131;-67
2023/06/26 06:50:33;;;;;;;4.75;1.75;;;27.00;48.90;;;;;;5054782;28;20049;-67
2023/06/26 06:52:59;;;;;;;4.85;1.73;;;27.10;48.20;;;;;;5073144;28;20115;-67
2023/06/26 06:55:25;;;;;;;5.05;1.90;;;27.10;47.60;;;;;;5055004;28;20491;-67
2023/06/26 06:57:51;;;;;;;3.80;1.67;;;27.20;48.00;;;;;;5054769;28;20076;-67
2023/06/26 07:00:17;;;;;;;4.00;1.55;;;27.20;47.20;;;;;;5054710;28;20095;-67
2023/06/26 07:02:44;;;;;;;5.47;1.70;;;27.30;47.10;;;;;;5054511;28;20056;-67
2023/06/26 07:05:11;;;;;;;3.67;1.83;;;27.40;47.10;;;;;;5054778;28;20115;-67
2023/06/26 07:07:37;;;;;;;2.83;1.40;;;27.50;46.40;;;;;;5054916;28;20047;-67
2023/06/26 07:10:12;;;;;;;4.95;1.50;;;27.50;46.20;;;;;;5053992;28;20491;-68
2023/06/26 07:12:38;;;;;;;2.40;1.35;;;27.60;45.90;;;;;;5054714;28;20087;-67
2023/06/26 07:15:05;;;;;;;2.85;1.38;;;27.60;45.60;;;;;;5054453;28;20047;-67
2023/06/26 07:17:31;;;;;;;5.30;1.38;;;27.70;44.90;;;;;;5054612;28;20047;-67
2023/06/26 07:19:57;;;;;;;3.20;1.30;;;27.80;44.40;;;;;;5054761;28;20072;-67
2023/06/26 07:22:23;;;;;;;4.30;1.15;;;27.80;43.50;;;;;;5054603;28;20431;-68
2023/06/26 07:24:49;;;;;;;3.60;1.98;;;27.90;43.80;;;;;;5054557;28;20028;-67
2023/06/26 07:27:16;;;;;;;4.53;1.73;;;27.90;43.50;;;;;;5054106;28;20445;-67
2023/06/26 07:29:42;;;;;;;5.30;1.55;;;28.00;43.60;;;;;;5051036;28;20041;-68
2023/06/26 07:32:08;;;;;;;3.50;1.50;;;28.00;43.30;;;;;;5054197;28;20487;-68
2023/06/26 07:34:34;;;;;;;4.55;1.88;;;28.10;43.20;;;;;;5054378;28;20040;-68
2023/06/26 07:37:00;;;;;;;4.18;1.50;;;28.20;42.80;;;;;;5054508;28;20048;-68
2023/06/26 07:39:26;;;;;;;3.85;1.27;;;28.30;42.60;;;;;;5054482;28;20040;-68
2023/06/26 07:41:51;;;;;;;3.70;1.42;;;28.40;42.80;;;;;;5054292;28;20522;-69
2023/06/26 07:44:17;;;;;;;2.25;1.23;;;28.40;42.90;;;;;;5054636;28;20037;-68
2023/06/26 07:46:44;;;;;;;3.53;1.58;;;28.40;43.10;;;;;;5054709;28;20555;-68
2023/06/26 07:49:10;;;;;;;2.97;1.30;;;28.50;43.00;;;;;;5072249;28;20041;-68
2023/06/26 07:51:36;;;;;;;2.55;1.30;;;28.50;43.00;;;;;;5054041;28;20041;-69
2023/06/26 07:54:02;;;;;;;4.07;1.73;;;28.60;43.30;;;;;;5039371;28;20044;-68
2023/06/26 07:56:27;;;;;;;4.40;1.50;;;28.60;43.10;;;;;;5031472;28;20813;-68
2023/06/26 07:58:53;;;;;;;4.32;2.40;;;28.70;42.90;;;;;;5030303;28;20044;-68
2023/06/26 08:01:19;;;;;;;3.40;1.50;;;28.60;42.80;;;;;;5031599;28;20073;-68
2023/06/26 08:03:44;;;;;;;3.28;1.35;;;28.60;42.80;;;;;;5030623;28;20056;-68
2023/06/26 08:06:10;;;;;;;3.22;1.50;;;28.50;42.90;;;;;;5031092;28;20392;-68
2023/06/26 08:08:36;;;;;;;2.97;1.70;;;28.40;43.10;;;;;;5019131;28;20048;-68
2023/06/26 08:11:02;;;;;;;5.93;2.35;;;28.20;43.50;;;;;;5031636;28;20044;-67
2023/06/26 08:13:28;;;;;;;6.03;1.95;;;28.20;43.70;;;;;;5018140;28;20068;-67
2023/06/26 08:15:54;;;;;;;3.78;1.65;;;28.10;43.90;;;;;;5031748;28;20467;-68
2023/06/26 08:18:20;;;;;;;2.38;1.73;;;28.00;43.90;;;;;;5032301;28;20048;-67
2023/06/26 08:20:46;;;;;;;4.38;1.85;;;27.90;43.90;;;;;;5031003;28;20040;-67
2023/06/26 08:23:12;;;;;;;4.57;1.73;;;27.80;43.90;;;;;;5035500;28;20085;-67
2023/06/26 08:25:37;;;;;;;4.75;1.58;;;27.70;44.20;;;;;;5034355;28;20064;-68
2023/06/26 08:28:03;;;;;;;5.00;1.38;;;27.60;44.30;;;;;;5034948;28;20044;-68
2023/06/26 08:30:29;;;;;;;5.88;2.00;;;27.50;44.60;;;;;;5036691;28;20064;-68
2023/06/26 08:32:55;;;;;;;6.95;1.80;;;27.40;44.80;;;;;;5057209;28;20060;-68
2023/06/26 08:35:21;;;;;;;5.28;2.13;;;27.30;45.00;;;;;;5054114;28;20075;-68
2023/06/26 08:37:47;;;;;;;3.63;2.20;;;27.10;45.20;;;;;;5037568;28;20467;-68
2023/06/26 08:40:16;;;;;;;4.97;1.95;;;27.10;45.40;;;;;;5038791;28;20049;-68
2023/06/26 08:42:42;;;;;;;3.92;1.83;;;27.00;45.30;;;;;;5035992;28;20064;-68
2023/06/26 08:45:07;;;;;;;5.30;1.77;;;27.00;45.50;;;;;;5036095;28;20037;-68
2023/06/26 08:47:35;;;;;;;4.78;1.92;;;26.90;46.10;;;;;;5033318;28;20448;-68
2023/06/26 08:50:13;;;;;;;4.72;1.90;;;26.90;46.30;;;;;;5034414;28;20480;-68
2023/06/26 08:53:04;;;;;;;6.22;2.38;;;27.00;45.90;;;;;;5018764;28;20045;-68
2023/06/26 08:55:33;;;;;;;3.97;2.55;;;26.90;45.60;;;;;;5037256;28;20033;-68
2023/06/26 08:57:59;;;;;;;5.30;2.30;;;26.90;45.60;;;;;;5039741;28;20036;-68
2023/06/26 09:00:25;;;;;;;4.50;2.10;;;26.80;45.50;;;;;;5037840;28;20044;-68
2023/06/26 09:02:51;;;;;;;6.20;2.38;;;26.70;45.90;;;;;;5030002;28;20052;-68
2023/06/26 09:05:17;;;;;;;3.78;2.22;;;26.70;46.00;;;;;;5016367;28;20496;-68
2023/06/26 09:07:43;;;;;;;5.90;2.35;;;26.70;46.00;;;;;;5034793;28;20037;-68
2023/06/26 09:10:09;;;;;;;3.80;2.42;;;26.70;45.80;;;;;;5033500;28;20471;-68
2023/06/26 09:12:36;;;;;;;5.28;2.50;;;26.60;45.70;;;;;;5033846;28;20051;-68
2023/06/26 09:15:03;;;;;;;4.65;2.15;;;26.70;46.00;;;;;;5033442;28;20055;-68
2023/06/26 09:17:37;;;;;;;5.15;2.33;;;26.70;45.90;;;;;;5033554;28;20124;-68
2023/06/26 09:20:04;;;;;;;5.70;1.65;;;26.70;46.10;;;;;;5033319;28;20510;-68
2023/06/26 09:22:33;;;;;;;4.57;2.28;;;26.80;46.00;;;;;;5016822;28;20033;-68
2023/06/26 09:24:59;;;;;;;3.78;1.60;;;26.80;45.80;;;;;;5032785;28;20087;-68
2023/06/26 09:27:25;;;;;;;7.07;2.10;;;26.80;45.50;;;;;;5033121;28;20376;-68
2023/06/26 09:29:51;;;;;;;2.88;1.60;;;26.90;45.40;;;;;;5029542;28;20037;-68
2023/06/26 09:32:17;;;;;;;3.10;1.90;;;26.80;45.00;;;;;;5015561;28;20045;-68
2023/06/26 09:34:46;;;;;;;4.13;1.95;;;26.80;45.00;;;;;;5014722;28;20049;-68
2023/06/26 09:37:13;;;;;;;6.25;2.45;;;26.80;45.20;;;;;;5029422;28;20128;-70
2023/06/26 09:39:39;;;;;;;4.25;2.25;;;26.80;45.50;;;;;;5032153;28;20045;-69
2023/06/26 09:42:06;;;;;;;6.15;2.35;;;26.80;45.70;;;;;;5032745;28;20412;-69
2023/06/26 09:44:33;;;;;;;4.10;2.25;;;26.80;45.60;;;;;;5032655;28;20084;-67
2023/06/26 09:47:01;;;;;;;4.93;1.90;;;26.70;45.70;;;;;;5015403;28;20548;-69
2023/06/26 09:49:27;;;;;;;4.75;2.45;;;26.70;45.70;;;;;;5032669;28;20073;-69
2023/06/26 09:51:53;;;;;;;3.00;1.80;;;26.80;45.20;;;;;;5032735;28;20444;-69
2023/06/26 09:54:22;;;;;;;4.53;2.05;;;26.80;45.00;;;;;;5033125;28;20068;-69
2023/06/26 09:56:47;;;;;;;3.08;2.08;;;26.80;44.50;;;;;;5032312;28;20038;-70
2023/06/26 09:59:13;;;;;;;4.63;1.95;;;26.80;44.90;;;;;;5032836;28;20056;-70
2023/06/26 10:01:45;;;;;;;5.57;2.00;;;26.90;44.50;;;;;;5023873;28;20088;-70
2023/06/26 10:04:11;;;;;;;7.15;2.65;;;26.90;44.70;;;;;;5034043;28;20056;-70
2023/06/26 10:06:42;;;;;;;6.28;2.60;;;26.90;45.30;;;;;;5022318;28;20041;-70
2023/06/26 10:09:09;;;;;;;5.57;2.38;;;26.80;45.30;;;;;;5037168;28;20457;-70
2023/06/26 10:12:02;;;;;;;6.07;2.65;;;26.80;45.70;;;;;;5038691;28;20121;-70
2023/06/26 10:14:33;;;;;;;5.38;2.42;;;26.80;45.60;;;;;;5038850;28;20128;-69
2023/06/26 10:17:01;;;;;;;6.55;2.38;;;26.70;45.50;;;;;;5039827;28;20032;-70
2023/06/26 10:19:28;;;;;;;4.45;2.17;;;26.70;46.20;;;;;;5039583;28;20033;-70
2023/06/26 10:21:55;;;;;;;5.22;2.42;;;26.80;46.30;;;;;;5040572;28;20076;-70
2023/06/26 10:24:22;;;;;;;6.53;2.28;;;26.80;45.90;;;;;;5039525;28;20041;-70
2023/06/26 10:26:56;;;;;;;4.65;2.45;;;26.80;45.90;;;;;;5039084;28;20030;-70
2023/06/26 10:29:23;;;;;;;7.75;2.97;;;26.90;45.80;;;;;;5021233;28;20446;-70
2023/06/26 10:31:54;;;;;;;5.80;2.50;;;26.90;44.90;;;;;;5037717;28;20053;-70
2023/06/26 10:34:21;;;;;;;5.32;2.10;;;26.80;43.90;;;;;;5022682;28;20148;-70
2023/06/26 10:36:48;;;;;;;7.30;2.17;;;26.70;43.80;;;;;;5039483;28;20064;-70
2023/06/26 10:39:13;;;;;;;3.50;1.75;;;26.70;44.00;;;;;;5038466;28;20041;-70
2023/06/26 10:41:44;;;;;;;4.75;2.00;;;26.70;43.30;;;;;;5037644;28;20739;-70
2023/06/26 10:44:12;;;;;;;6.63;2.25;;;26.60;42.60;;;;;;5037826;28;20042;-70
2023/06/26 10:47:07;;;;;;;3.60;1.85;;;26.50;43.20;;;;;;5039281;28;20040;-70
2023/06/26 10:49:34;;;;;;;6.50;2.00;;;26.40;43.70;;;;;;5030880;28;20059;-70
2023/06/26 10:52:03;;;;;;;5.45;2.15;;;26.40;43.70;;;;;;5050568;28;20060;-70
2023/06/26 10:54:31;;;;;;;5.28;1.75;;;26.50;43.40;;;;;;5028076;28;20049;-70
2023/06/26 10:56:57;;;;;;;5.63;2.20;;;26.50;43.20;;;;;;5047843;28;20052;-69
2023/06/26 10:59:26;;;;;;;3.45;1.70;;;26.60;43.10;;;;;;5047596;28;20041;-69
2023/06/26 11:01:56;;;;;;;4.65;1.77;;;26.70;42.70;;;;;;5051383;28;20047;-69
2023/06/26 11:04:44;;;;;;;4.78;1.77;;;26.70;42.90;;;;;;5044460;28;20123;-69
2023/06/26 11:07:23;;;;;;;3.97;1.55;;;26.90;42.80;;;;;;5050229;28;20043;-69
2023/06/26 11:10:08;;;;;;;5.00;1.65;;;27.00;43.20;;;;;;5048833;28;20037;-69
2023/06/26 11:12:38;;;;;;;4.72;1.90;;;27.00;42.70;;;;;;5049239;28;20103;-68
2023/06/26 11:15:14;;;;;;;4.20;2.00;;;27.10;42.10;;;;;;5050019;28;20427;-69
2023/06/26 11:17:41;;;;;;;4.80;1.42;;;27.10;42.30;;;;;;5047673;28;20479;-69
2023/06/26 11:20:09;;;;;;;5.05;1.58;;;27.10;41.60;;;;;;5034216;28;20124;-69
2023/06/26 11:22:37;;;;;;;6.25;2.20;;;27.20;41.80;;;;;;5050414;28;20048;-69
2023/06/26 11:25:04;;;;;;;5.28;1.80;;;27.30;42.20;;;;;;5050877;28;20492;-69
2023/06/26 11:27:40;;;;;;;3.83;1.92;;;27.30;42.00;;;;;;5044238;28;20068;-68
2023/06/26 11:30:08;;;;;;;5.25;1.88;;;27.40;41.50;;;;;;5044353;28;20033;-67
2023/06/26 11:32:34;;;;;;;4.25;1.73;;;27.40;41.60;;;;;;5051008;28;20060;-67
2023/06/26 11:35:00;;;;;;;5.97;1.77;;;27.40;40.80;;;;;;5051426;28;20071;-68
2023/06/26 11:37:26;;;;;;;3.53;1.33;;;27.30;40.10;;;;;;5050948;28;20456;-68
2023/06/26 11:39:52;;;;;;;6.00;1.55;;;27.20;39.70;;;;;;5044869;28;20033;-68
2023/06/26 11:42:21;;;;;;;3.55;1.10;;;27.20;39.70;;;;;;5050194;28;20048;-68
2023/06/26 11:44:47;;;;;;;5.75;1.30;;;27.10;39.60;;;;;;5047888;28;20553;-68
2023/06/26 11:47:20;;;;;;;4.65;1.48;;;27.00;39.40;;;;;;5050607;28;20045;-68
2023/06/26 11:49:48;;;;;;;3.10;1.20;;;27.00;39.30;;;;;;5049414;28;20069;-68
2023/06/26 11:52:15;;;;;;;5.68;1.60;;;26.90;39.00;;;;;;5050835;28;20442;-68
2023/06/26 11:54:41;;;;;;;4.30;1.45;;;26.90;38.70;;;;;;5050670;28;20094;-68
2023/06/26 11:57:07;;;;;;;4.97;1.70;;;26.80;38.90;;;;;;5053167;28;20380;-68
2023/06/26 11:59:39;;;;;;;5.65;1.30;;;26.80;39.80;;;;;;5054821;28;20041;-69
2023/06/26 12:02:10;;;;;;;5.28;1.63;;;26.80;39.90;;;;;;5054802;28;20082;-70
2023/06/26 12:04:42;;;;;;;7.00;1.73;;;26.70;39.80;;;;;;5054242;28;20053;-70
2023/06/26 12:07:09;;;;;;;5.03;1.60;;;26.70;40.20;;;;;;5053446;28;20052;-70
2023/06/26 12:09:44;;;;;;;5.30;1.67;;;26.70;40.50;;;;;;5052879;28;20484;-70
2023/06/26 12:12:11;;;;;;;5.60;1.80;;;26.80;41.10;;;;;;5054498;28;20032;-70
2023/06/26 12:14:38;;;;;;;4.43;1.60;;;26.80;40.60;;;;;;5054340;28;20033;-68
2023/06/26 12:17:13;;;;;;;4.85;1.73;;;26.80;40.80;;;;;;5054517;28;20037;-68
2023/06/26 12:19:49;;;;;;;7.35;1.45;;;26.90;41.40;;;;;;5053718;28;20075;-68
2023/06/26 12:22:16;;;;;;;10.23;1.88;;;26.90;41.20;;;;;;5049117;28;20416;-68
2023/06/26 12:24:43;;;;;;;6.28;1.65;;;26.90;41.20;;;;;;5054201;28;20472;-68
2023/06/26 12:27:15;;;;;;;4.65;1.48;;;26.90;40.90;;;;;;5054630;28;20118;-68
2023/06/26 12:29:54;;;;;;;4.75;1.42;;;26.80;41.20;;;;;;5054390;28;20036;-68
2023/06/26 12:32:23;;;;;;;3.92;1.88;;;26.80;41.20;;;;;;5054220;28;20041;-68
2023/06/26 12:34:50;;;;;;;2.88;1.15;;;26.70;40.60;;;;;;5053788;28;20043;-68
2023/06/26 12:37:16;;;;;;;4.03;1.40;;;26.70;40.50;;;;;;5054044;28;20130;-68
2023/06/26 12:39:50;;;;;;;5.22;1.90;;;26.70;40.80;;;;;;5054207;28;20040;-69
2023/06/26 12:42:18;;;;;;;4.10;1.23;;;26.60;41.00;;;;;;5037316;28;20041;-68
2023/06/26 12:44:44;;;;;;;6.45;1.70;;;26.60;41.00;;;;;;5049555;28;20048;-68
2023/06/26 12:47:13;;;;;;;4.95;1.65;;;26.50;41.40;;;;;;5045870;28;20464;-68
2023/06/26 12:49:40;;;;;;;6.15;1.30;;;26.50;41.90;;;;;;5053589;28;20040;-68